Terminal Aerodrome Forecast
Issued by NWS Corpus Christi, TX

Home | Current Version | Previous Version | Text Only | Print | Product List | Glossary On
Versions: 1 2 3 4 5 6 7 8 9 10 11 12 13 14
000
FTUS44 KCRP 281400 AAB
TAFCRP
TAF AMD
KCRP 281443Z 2815/2912 19004KT 1/4SM FG BKN001
     FM281530 19005KT P6SM FEW250
     FM281700 16014G19KT P6SM SCT250
     FM290100 15008KT P6SM SCT250
     FM290800 15005KT 4SM BR BKN007
      TEMPO 2908/2912 2SM BR OVC003=

USA.gov is the U.S. government's official web portal to all federal, state and local government web resources and services.